Lincoln Boyhood National Mem, Indiana
Current Conditions -  °F | °C
As of 6:55 PM on Saturday 25 Oct 2014 (Local Time) from KHNB Reporting Station
Clear Clear  
Wind Chill: 64°   Ceiling: Unl
Heat Index: 64°   Visibility: 10mi
Dew Point: 54°   Wind: 3mph
Humidity: 68%   Direction: 250°WSW
Pressure: 29.99"   Gusts: NA
Location:  38.1283°N, 86.9862°W
Report Text: KHNB 252355Z AUTO 25003KT 10SM CLR 18/12 A2999 RMK AO1 10250 20180 52003
Loading
Personal Weather Stations






























Interactive Weather Map
Tropical Storm Tracking
New forecast layout! Learn more

10-Day Weather Forecast

Advertisements
Track Severe Weather on mobile